Time;durP1;ratioP1;P1;durP2;ratioP2;P2;SDS_P1;SDS_P2;PMS_P1;PMS_P2;Temp;Humidity;BMP_temperature;BMP_pressure;BME280_temperature;BME280_humidity;BME280_pressure;Samples;Min_cycle;Max_cycle;Signal;HPM_P1;HPM_P2
2023/01/26 00:01:24;;;;;;;0.50;0.50;;;;;;;6.42;65.08;102583.34;4987749;28;20121;-70
2023/01/26 00:03:50;;;;;;;0.55;0.55;;;;;;;6.06;66.01;102587.88;4987158;28;20026;-70
2023/01/26 00:06:18;;;;;;;0.60;0.60;;;;;;;6.93;64.04;102584.19;4986357;28;20089;-70
2023/01/26 00:08:46;;;;;;;0.52;0.52;;;;;;;7.16;62.59;102589.78;4988165;28;20030;-70
2023/01/26 00:11:14;;;;;;;0.50;0.50;;;;;;;6.90;63.39;102588.97;4986086;28;20038;-70
2023/01/26 00:13:40;;;;;;;0.52;0.52;;;;;;;6.34;65.08;102583.28;4986030;28;20044;-70
2023/01/26 00:16:13;;;;;;;0.90;0.90;;;;;;;6.86;64.25;102574.28;4989027;28;20034;-70
2023/01/26 00:18:40;;;;;;;0.63;0.63;;;;;;;6.08;66.24;102576.06;4987399;28;20065;-70
2023/01/26 00:21:07;;;;;;;0.70;0.70;;;;;;;6.75;63.69;102578.06;4984767;28;20072;-71
2023/01/26 00:23:34;;;;;;;0.52;0.52;;;;;;;6.60;64.09;102579.66;4990317;28;20130;-72
2023/01/26 00:26:02;;;;;;;0.80;0.80;;;;;;;7.44;61.51;102572.53;4985419;28;20456;-71
2023/01/26 00:28:28;;;;;;;0.80;0.80;;;;;;;7.52;61.44;102575.25;4986432;28;20826;-71
2023/01/26 00:30:53;;;;;;;0.60;0.60;;;;;;;6.85;64.17;102570.78;4987156;28;20027;-71
2023/01/26 00:33:19;;;;;;;0.50;0.50;;;;;;;6.97;62.73;102572.19;4987986;28;20034;-70
2023/01/26 00:35:53;;;;;;;0.70;0.70;;;;;;;7.65;61.55;102567.56;4986001;28;20034;-70
2023/01/26 00:38:18;;;;;;;0.60;0.60;;;;;;;7.01;62.94;102564.69;4993614;28;20177;-71
2023/01/26 00:40:43;;;;;;;0.70;0.70;;;;;;;7.67;60.77;102570.09;4993688;28;20506;-70
2023/01/26 00:43:09;;;;;;;0.50;0.50;;;;;;;7.59;61.01;102565.56;4993535;28;20038;-71
2023/01/26 00:45:34;;;;;;;0.52;0.52;;;;;;;7.73;60.52;102562.25;4994228;28;20030;-70
2023/01/26 00:48:00;;;;;;;0.70;0.70;;;;;;;7.94;59.98;102549.22;4993811;28;20285;-70
2023/01/26 00:50:25;;;;;;;0.60;0.60;;;;;;;7.78;59.53;102557.22;4993750;28;20041;-71
2023/01/26 00:52:52;;;;;;;0.55;0.55;;;;;;;7.45;61.16;102552.00;4993593;28;20042;-70
2023/01/26 00:55:18;;;;;;;0.50;0.50;;;;;;;7.87;59.93;102552.72;4993626;28;20031;-70
2023/01/26 00:57:43;;;;;;;0.50;0.50;;;;;;;7.68;60.17;102545.00;4993840;28;20501;-69
2023/01/26 01:00:12;;;;;;;0.52;0.52;;;;;;;7.10;62.35;102545.00;4993055;28;20054;-69
2023/01/26 01:02:37;;;;;;;0.50;0.50;;;;;;;7.11;61.21;102547.50;4993114;28;20057;-70
2023/01/26 01:05:03;;;;;;;0.52;0.52;;;;;;;7.55;60.91;102547.31;4992935;28;20042;-71
2023/01/26 01:07:28;;;;;;;0.57;0.57;;;;;;;7.61;60.81;102549.34;4993454;28;20121;-70
2023/01/26 01:09:54;;;;;;;0.50;0.50;;;;;;;8.03;59.10;102542.03;4993779;28;20398;-72
2023/01/26 01:12:19;;;;;;;0.60;0.60;;;;;;;7.88;59.89;102547.19;4993257;28;20457;-70
2023/01/26 01:14:44;;;;;;;0.57;0.57;;;;;;;7.60;60.38;102537.81;4993512;28;20042;-70
2023/01/26 01:17:10;;;;;;;0.70;0.70;;;;;;;7.40;61.58;102547.13;4992476;28;20058;-70
2023/01/26 01:19:35;;;;;;;0.40;0.40;;;;;;;6.95;62.97;102539.44;4993114;28;20498;-71
2023/01/26 01:22:02;;;;;;;0.60;0.60;;;;;;;7.40;61.34;102536.41;4994292;28;20479;-70
2023/01/26 01:24:27;;;;;;;0.68;0.68;;;;;;;7.53;60.64;102544.81;4979278;28;20117;-70
2023/01/26 01:26:52;;;;;;;0.63;0.63;;;;;;;6.76;63.81;102547.66;4973606;28;20130;-70
2023/01/26 01:29:18;;;;;;;0.60;0.60;;;;;;;6.79;62.98;102536.69;4973606;28;20042;-72
2023/01/26 01:31:43;;;;;;;0.52;0.52;;;;;;;6.75;63.82;102539.81;4973472;28;20120;-70
2023/01/26 01:34:09;;;;;;;0.68;0.68;;;;;;;7.42;61.33;102530.91;4985596;28;20117;-71
2023/01/26 01:36:34;;;;;;;0.43;0.43;;;;;;;7.18;61.92;102542.34;4993051;28;20038;-71
2023/01/26 01:39:00;;;;;;;0.60;0.60;;;;;;;7.18;63.01;102536.16;4992700;28;20535;-70
2023/01/26 01:41:25;;;;;;;0.60;0.60;;;;;;;7.63;60.66;102533.94;4992417;28;20061;-71
2023/01/26 01:43:50;;;;;;;0.60;0.60;;;;;;;7.66;60.77;102534.47;4992000;28;20034;-72
2023/01/26 01:46:30;;;;;;;0.50;0.50;;;;;;;7.34;62.08;102542.41;4992611;28;20495;-71
2023/01/26 01:49:01;;;;;;;0.55;0.55;;;;;;;7.35;62.53;102543.25;4992482;28;20602;-71
2023/01/26 01:51:42;;;;;;;0.60;0.60;;;;;;;6.87;64.00;102543.88;4991923;28;20042;-70
2023/01/26 01:54:13;;;;;;;0.40;0.40;;;;;;;7.37;62.40;102543.94;4992315;28;20499;-71
2023/01/26 01:56:43;;;;;;;0.55;0.55;;;;;;;6.62;63.97;102539.41;4991703;28;20034;-71
2023/01/26 01:59:11;;;;;;;0.60;0.60;;;;;;;7.16;63.10;102541.69;4992335;28;20129;-71
2023/01/26 02:01:37;;;;;;;0.43;0.43;;;;;;;6.84;63.76;102537.03;4991027;28;20034;-70
2023/01/26 02:04:05;;;;;;;0.68;0.68;;;;;;;7.50;62.14;102541.63;4992016;28;20037;-71
2023/01/26 02:06:41;;;;;;;0.55;0.55;;;;;;;7.07;63.44;102534.63;4992356;28;20517;-72
2023/01/26 02:10:17;;;;;;;0.60;0.60;;;;;;;7.38;62.08;102533.06;4985755;28;20049;-72
2023/01/26 02:11:55;;;;;;;0.50;0.50;;;;;;;7.69;60.94;102533.28;4972591;28;20042;-69
2023/01/26 02:14:21;;;;;;;0.57;0.57;;;;;;;8.04;60.23;102522.28;4972484;28;20031;-71
2023/01/26 02:16:46;;;;;;;0.70;0.70;;;;;;;7.89;60.46;102524.81;4972691;28;20031;-71
2023/01/26 02:19:39;;;;;;;0.50;0.50;;;;;;;7.69;61.09;102522.59;4979907;28;20071;-69
2023/01/26 02:22:15;;;;;;;0.75;0.75;;;;;;;7.63;61.99;102515.22;4972411;28;20138;-69
2023/01/26 02:24:41;;;;;;;0.50;0.50;;;;;;;7.48;61.85;102519.56;4987665;28;20067;-71
2023/01/26 02:27:06;;;;;;;0.55;0.55;;;;;;;7.46;61.81;102526.91;4971946;28;20070;-70
2023/01/26 02:29:31;;;;;;;0.45;0.45;;;;;;;7.58;61.77;102513.06;4972390;28;20039;-71
2023/01/26 02:31:57;;;;;;;0.40;0.40;;;;;;;7.22;62.95;102525.00;4972410;28;20136;-70
2023/01/26 02:34:24;;;;;;;0.50;0.50;;;;;;;7.32;62.32;102531.03;4987589;28;20515;-70
2023/01/26 02:36:57;;;;;;;0.47;0.47;;;;;;;7.47;62.58;102531.28;4973357;28;20054;-70
2023/01/26 02:39:28;;;;;;;0.60;0.60;;;;;;;7.68;62.22;102526.28;4991976;28;20041;-71
2023/01/26 02:44:40;;;;;;;0.68;0.68;;;;;;;7.92;61.06;102519.09;4972222;28;20291;-70
2023/01/26 02:47:13;;;;;;;0.55;0.55;;;;;;;7.23;62.90;102526.69;4971975;28;20042;-70
2023/01/26 02:49:51;;;;;;;0.50;0.50;;;;;;;7.67;61.78;102524.59;4986786;28;20038;-70
2023/01/26 02:52:20;;;;;;;0.50;0.50;;;;;;;7.47;62.47;102525.91;4991398;28;20038;-72
2023/01/26 02:57:30;;;;;;;0.47;0.47;;;;;;;6.69;64.85;102535.94;4991631;28;20045;-70
2023/01/26 02:59:56;;;;;;;0.50;0.50;;;;;;;7.23;63.56;102539.22;4991360;28;20049;-70
2023/01/26 03:02:22;;;;;;;0.45;0.45;;;;;;;7.02;63.75;102537.78;4991362;28;20046;-70
2023/01/26 03:04:47;;;;;;;0.57;0.57;;;;;;;6.81;64.47;102529.34;4991480;28;20040;-70
2023/01/26 03:07:13;;;;;;;0.60;0.60;;;;;;;7.30;62.86;102532.19;4990416;28;20092;-70
2023/01/26 03:09:38;;;;;;;0.60;0.60;;;;;;;7.86;61.37;102538.50;4996098;28;20435;-70
2023/01/26 03:12:04;;;;;;;0.70;0.70;;;;;;;7.52;62.93;102534.28;4994525;28;20037;-70
2023/01/26 03:14:29;;;;;;;0.52;0.52;;;;;;;7.77;61.54;102536.81;4995115;28;20070;-70
2023/01/26 03:16:54;;;;;;;0.60;0.60;;;;;;;7.65;62.13;102534.63;4981772;28;20121;-71
2023/01/26 03:27:45;;;;;;;0.52;0.52;;;;;;;8.00;61.81;102527.13;4975394;28;20553;-71
2023/01/26 03:30:11;;;;;;;0.57;0.57;;;;;;;6.98;64.42;102533.75;4975072;28;20122;-71
2023/01/26 03:32:37;;;;;;;0.60;0.60;;;;;;;7.39;63.68;102536.59;4975140;28;20445;-70
2023/01/26 03:35:02;;;;;;;0.75;0.75;;;;;;;7.03;64.47;102526.13;4974876;28;20031;-72
2023/01/26 03:37:35;;;;;;;0.52;0.52;;;;;;;7.45;63.40;102522.56;4975088;28;20112;-71
2023/01/26 03:56:31;;;;;;;0.63;0.63;;;;;;;7.83;62.47;102517.44;4994373;28;20413;-70
2023/01/26 03:59:08;;;;;;;0.40;0.40;;;;;;;8.16;61.58;102520.09;4977378;28;20114;-70
2023/01/26 04:01:35;;;;;;;0.65;0.65;;;;;;;7.66;62.18;102515.75;4974683;28;20094;-70
2023/01/26 04:09:31;;;;;;;0.40;0.40;;;;;;;7.59;62.78;102513.88;4974716;28;20491;-71
2023/01/26 04:11:57;;;;;;;0.50;0.50;;;;;;;7.33;63.76;102526.53;4981744;28;20170;-71
2023/01/26 04:22:43;;;;;;;0.60;0.60;;;;;;;7.28;64.14;102513.66;4974655;28;20085;-71
2023/01/26 04:25:11;;;;;;;0.40;0.40;;;;;;;7.79;62.87;102518.78;4974695;28;20026;-70
2023/01/26 04:27:37;;;;;;;0.40;0.40;;;;;;;6.68;67.11;102523.56;4975177;28;20688;-70
2023/01/26 04:30:03;;;;;;;0.50;0.50;;;;;;;7.59;63.54;102522.75;4974305;28;20038;-70
2023/01/26 04:32:29;;;;;;;0.52;0.52;;;;;;;7.59;63.12;102516.56;4974068;28;20222;-70
2023/01/26 04:34:55;;;;;;;0.40;0.40;;;;;;;7.62;63.65;102516.25;4988855;28;20045;-71
2023/01/26 04:37:21;;;;;;;0.50;0.50;;;;;;;7.51;64.48;102516.56;4973980;28;20182;-70
2023/01/26 04:39:46;;;;;;;0.50;0.50;;;;;;;7.46;64.47;102529.56;4990301;28;20117;-71
2023/01/26 04:42:12;;;;;;;0.43;0.43;;;;;;;7.61;63.92;102515.41;4993308;28;20129;-71
2023/01/26 04:44:37;;;;;;;0.55;0.55;;;;;;;7.41;63.98;102505.19;4993586;28;20061;-70
2023/01/26 04:47:03;;;;;;;0.43;0.43;;;;;;;7.06;64.82;102511.56;4993618;28;20034;-70
2023/01/26 04:49:28;;;;;;;0.50;0.50;;;;;;;7.25;65.55;102508.66;4993136;28;20034;-69
2023/01/26 04:51:53;;;;;;;0.60;0.60;;;;;;;7.26;64.49;102510.31;4993641;28;20026;-71
2023/01/26 04:54:19;;;;;;;0.40;0.40;;;;;;;7.90;63.08;102496.22;4993190;28;20118;-71
2023/01/26 04:56:44;;;;;;;0.50;0.50;;;;;;;7.54;64.91;102500.19;4993422;28;20407;-70
2023/01/26 04:59:10;;;;;;;0.47;0.47;;;;;;;7.99;62.64;102495.19;4992878;28;20053;-70
2023/01/26 05:01:36;;;;;;;0.50;0.50;;;;;;;7.48;64.30;102498.16;4991224;28;20630;-71
2023/01/26 05:04:03;;;;;;;0.50;0.50;;;;;;;8.09;62.87;102495.00;4993044;28;20079;-71
2023/01/26 05:06:29;;;;;;;0.50;0.50;;;;;;;8.14;61.84;102490.00;4993155;28;20181;-70
2023/01/26 05:08:55;;;;;;;0.40;0.40;;;;;;;8.12;62.74;102483.97;4987397;28;20494;-71
2023/01/26 05:11:21;;;;;;;0.40;0.40;;;;;;;7.71;63.68;102485.81;4992438;28;20030;-71
2023/01/26 05:13:47;;;;;;;0.40;0.40;;;;;;;8.26;62.20;102476.09;4992627;28;20053;-70
2023/01/26 05:16:13;;;;;;;0.60;0.60;;;;;;;8.31;62.09;102480.97;4987865;28;20082;-71
2023/01/26 05:18:39;;;;;;;0.45;0.45;;;;;;;7.69;63.57;102485.97;4992943;28;20034;-70
2023/01/26 05:21:05;;;;;;;0.52;0.52;;;;;;;7.73;63.69;102486.47;4992931;28;20121;-70
2023/01/26 05:23:30;;;;;;;0.40;0.40;;;;;;;7.83;64.08;102488.00;4992474;28;20125;-70
2023/01/26 05:25:56;;;;;;;0.40;0.40;;;;;;;7.90;63.79;102486.31;4992573;28;20547;-70
2023/01/26 05:28:21;;;;;;;0.47;0.47;;;;;;;7.90;63.55;102472.94;4992739;28;20046;-70
2023/01/26 05:30:47;;;;;;;0.40;0.40;;;;;;;8.13;63.23;102473.09;4991914;28;20479;-70
2023/01/26 05:33:12;;;;;;;0.40;0.40;;;;;;;7.80;63.90;102484.81;4992307;28;20035;-69
2023/01/26 05:35:37;;;;;;;0.45;0.45;;;;;;;7.88;64.09;102490.19;4992355;28;20044;-72
2023/01/26 05:38:03;;;;;;;0.60;0.60;;;;;;;7.94;63.07;102487.66;4991993;28;20041;-71
2023/01/26 05:40:28;;;;;;;0.50;0.50;;;;;;;8.29;61.70;102488.34;4992052;28;20054;-72
2023/01/26 05:42:54;;;;;;;0.50;0.50;;;;;;;8.00;62.81;102486.97;4991152;28;20034;-69
2023/01/26 05:45:20;;;;;;;0.60;0.60;;;;;;;7.78;64.19;102489.50;4991731;28;20034;-71
2023/01/26 05:47:47;;;;;;;0.68;0.68;;;;;;;7.84;62.56;102492.34;4989524;28;20526;-70
2023/01/26 05:50:13;;;;;;;0.50;0.50;;;;;;;7.66;64.58;102501.53;4991578;28;20041;-71
2023/01/26 05:52:38;;;;;;;0.50;0.50;;;;;;;8.17;62.43;102498.53;4991523;28;20034;-71
2023/01/26 05:55:05;;;;;;;0.70;0.70;;;;;;;8.05;63.12;102499.88;4991354;28;20054;-70
2023/01/26 05:57:30;;;;;;;0.60;0.60;;;;;;;8.47;61.82;102497.00;4992173;28;20026;-70
2023/01/26 05:59:56;;;;;;;0.50;0.50;;;;;;;8.46;61.88;102495.31;4991810;28;20071;-70
2023/01/26 06:02:21;;;;;;;0.40;0.40;;;;;;;8.02;63.23;102502.06;4990685;28;20145;-71
2023/01/26 06:04:47;;;;;;;0.40;0.40;;;;;;;8.43;62.58;102495.69;4991642;28;20036;-70
2023/01/26 06:07:12;;;;;;;0.47;0.47;;;;;;;8.26;63.09;102502.88;4987981;28;20062;-70
2023/01/26 06:09:39;;;;;;;0.40;0.40;;;;;;;8.47;61.31;102495.16;4984904;28;20630;-71
2023/01/26 06:12:05;;;;;;;0.50;0.50;;;;;;;7.92;64.28;102505.72;4988594;28;20272;-71
2023/01/26 06:14:30;;;;;;;0.45;0.45;;;;;;;8.27;62.86;102504.59;4985631;28;20299;-71
2023/01/26 06:16:56;;;;;;;0.50;0.50;;;;;;;8.56;62.70;102504.00;4982414;28;20514;-71
2023/01/26 06:19:21;;;;;;;0.30;0.30;;;;;;;8.51;62.00;102493.00;4984751;28;20373;-70
2023/01/26 06:21:47;;;;;;;0.30;0.30;;;;;;;7.94;63.18;102497.50;4984222;28;20105;-71
2023/01/26 06:24:12;;;;;;;0.40;0.40;;;;;;;8.58;62.52;102496.63;4987174;28;20048;-70
2023/01/26 06:26:38;;;;;;;0.57;0.57;;;;;;;8.85;61.07;102505.09;4972562;28;20030;-71
2023/01/26 06:29:03;;;;;;;0.30;0.30;;;;;;;8.68;61.50;102502.63;4978226;28;20110;-71
2023/01/26 06:31:29;;;;;;;0.50;0.50;;;;;;;8.42;61.86;102508.22;4984319;28;20050;-71
2023/01/26 06:33:55;;;;;;;0.60;0.60;;;;;;;8.60;61.26;102506.19;4991441;28;20438;-71
2023/01/26 06:36:20;;;;;;;0.50;0.50;;;;;;;8.29;62.41;102515.97;4992302;28;20042;-70
2023/01/26 06:38:51;;;;;;;0.40;0.40;;;;;;;8.71;61.54;102518.34;4986135;28;20035;-70
2023/01/26 06:41:17;;;;;;;;;;;;;;;8.35;62.92;102519.78;4976513;28;20039;-69
2023/01/26 06:43:47;;;;;;;0.68;0.68;;;;;;;8.81;61.96;102517.16;4972201;28;20338;-70
2023/01/26 06:46:14;;;;;;;0.50;0.50;;;;;;;8.88;61.11;102515.44;4972265;28;20110;-70
2023/01/26 06:48:40;;;;;;;0.45;0.45;;;;;;;8.75;61.13;102520.53;4981251;28;20406;-70
2023/01/26 06:51:09;;;;;;;0.50;0.50;;;;;;;8.44;62.62;102521.44;4988711;28;20034;-71
2023/01/26 06:53:41;;;;;;;0.52;0.52;;;;;;;7.91;64.17;102522.78;4988967;28;20038;-71
2023/01/26 06:56:06;;;;;;;0.40;0.40;;;;;;;8.27;63.20;102530.50;4991680;28;20073;-71
2023/01/26 06:58:32;;;;;;;0.40;0.40;;;;;;;8.52;62.30;102527.63;4991477;28;20349;-70
2023/01/26 07:00:58;;;;;;;0.57;0.57;;;;;;;8.59;62.30;102535.81;4986737;28;20491;-71
2023/01/26 07:03:24;;;;;;;0.50;0.50;;;;;;;8.89;60.87;102537.75;4971990;28;20045;-71
2023/01/26 07:05:49;;;;;;;0.43;0.43;;;;;;;8.74;61.51;102534.13;4971861;28;20035;-71
2023/01/26 07:08:14;;;;;;;0.60;0.60;;;;;;;8.29;63.46;102533.88;4976042;28;20104;-70
2023/01/26 07:10:40;;;;;;;0.60;0.60;;;;;;;8.32;62.83;102531.69;4989382;28;20049;-71
2023/01/26 07:13:05;;;;;;;0.63;0.63;;;;;;;8.01;63.63;102536.00;4991180;28;20030;-70
2023/01/26 07:15:31;;;;;;;0.50;0.50;;;;;;;8.31;63.68;102529.19;4990018;28;20533;-71
2023/01/26 07:17:57;;;;;;;0.55;0.55;;;;;;;8.53;62.92;102539.19;4991393;28;20499;-70
2023/01/26 07:20:23;;;;;;;0.80;0.80;;;;;;;8.23;63.20;102534.50;4990150;28;20173;-71
2023/01/26 07:22:49;;;;;;;0.80;0.80;;;;;;;8.09;64.90;102549.41;4990955;28;20046;-71
2023/01/26 07:25:15;;;;;;;0.60;0.60;;;;;;;8.14;64.31;102541.69;4991608;28;20037;-71
2023/01/26 07:27:41;;;;;;;0.65;0.65;;;;;;;8.24;63.83;102544.19;4991556;28;20065;-71
2023/01/26 07:30:07;;;;;;;0.65;0.65;;;;;;;8.29;64.23;102555.28;4990202;28;20143;-70
2023/01/26 07:32:33;;;;;;;0.80;0.80;;;;;;;8.36;63.22;102553.59;4999378;28;20044;-70
2023/01/26 07:34:58;;;;;;;0.80;0.80;;;;;;;7.86;65.06;102564.44;4990696;28;20046;-71
2023/01/26 07:37:27;;;;;;;0.60;0.60;;;;;;;8.36;64.43;102556.28;4990273;28;20141;-71
2023/01/26 07:39:52;;;;;;;0.60;0.60;;;;;;;8.42;63.11;102555.59;4990980;28;20026;-70
2023/01/26 07:42:18;;;;;;;0.70;0.70;;;;;;;8.76;62.50;102558.91;4990272;28;20101;-71
2023/01/26 07:44:43;;;;;;;0.68;0.68;;;;;;;8.78;62.48;102557.72;4990486;28;20113;-69
2023/01/26 07:47:08;;;;;;;0.60;0.60;;;;;;;8.69;62.81;102563.25;4990389;28;20121;-70
2023/01/26 07:49:33;;;;;;;0.80;0.80;;;;;;;8.60;62.77;102567.81;4990093;28;20066;-70
2023/01/26 07:51:59;;;;;;;0.65;0.65;;;;;;;8.42;62.41;102569.84;4991083;28;20465;-73
2023/01/26 07:54:24;;;;;;;0.60;0.60;;;;;;;8.53;63.61;102558.75;4987752;28;20035;-70
2023/01/26 07:56:51;;;;;;;0.70;0.70;;;;;;;8.77;63.14;102565.91;4991165;28;20034;-70
2023/01/26 07:59:17;;;;;;;0.82;0.82;;;;;;;9.02;61.82;102564.84;4993056;28;20050;-71
2023/01/26 08:01:42;;;;;;;0.90;0.90;;;;;;;8.31;63.67;102574.69;4988856;28;20439;-70
2023/01/26 08:04:07;;;;;;;0.85;0.85;;;;;;;8.59;63.43;102574.16;4985334;28;20113;-70
2023/01/26 08:06:33;;;;;;;0.80;0.70;;;;;;;9.18;62.26;102578.19;4989964;28;20077;-70
2023/01/26 08:08:58;;;;;;;0.65;0.50;;;;;;;9.29;60.86;102574.31;4988053;28;20124;-70
2023/01/26 08:11:25;;;;;;;0.77;0.73;;;;;;;9.08;61.63;102577.56;4988793;28;20587;-71
2023/01/26 08:13:51;;;;;;;0.63;0.63;;;;;;;9.42;60.78;102574.56;4987708;28;20113;-71
2023/01/26 08:16:17;;;;;;;0.80;0.80;;;;;;;9.09;62.47;102573.03;4988298;28;20106;-70
2023/01/26 08:18:44;;;;;;;0.80;0.80;;;;;;;9.40;61.47;102572.06;4988648;28;20045;-70
2023/01/26 08:21:11;;;;;;;0.95;0.95;;;;;;;9.48;60.72;102572.03;4987926;28;20057;-69
2023/01/26 08:23:36;;;;;;;0.80;0.80;;;;;;;9.43;60.87;102568.22;4988193;28;20056;-71
2023/01/26 08:26:04;;;;;;;1.15;0.90;;;;;;;9.12;62.13;102576.19;4988370;28;20030;-70
2023/01/26 08:28:30;;;;;;;0.80;0.75;;;;;;;8.98;63.10;102573.41;4988341;28;20038;-69
2023/01/26 08:31:01;;;;;;;0.55;0.50;;;;;;;9.19;62.24;102579.88;4988288;28;20037;-70
2023/01/26 08:33:27;;;;;;;0.82;0.60;;;;;;;8.87;63.48;102579.97;4987840;28;20221;-71
2023/01/26 08:35:52;;;;;;;1.02;0.80;;;;;;;8.77;64.11;102568.59;4987495;28;20129;-69
2023/01/26 08:38:17;;;;;;;1.80;1.10;;;;;;;8.65;63.83;102578.84;4987115;28;20081;-70
2023/01/26 08:40:43;;;;;;;1.00;0.90;;;;;;;9.01;63.32;102573.91;4987741;28;20058;-70
2023/01/26 08:43:08;;;;;;;1.35;1.00;;;;;;;9.22;62.62;102582.19;4987789;28;20523;-69
2023/01/26 08:45:33;;;;;;;1.70;1.25;;;;;;;8.73;64.78;102578.00;4987246;28;20041;-70
2023/01/26 08:47:59;;;;;;;0.70;0.70;;;;;;;9.08;63.63;102574.06;4987260;28;20058;-71
2023/01/26 08:50:24;;;;;;;0.57;0.57;;;;;;;9.33;62.64;102578.31;4987414;28;20129;-70
2023/01/26 08:52:50;;;;;;;0.88;0.70;;;;;;;8.71;63.67;102585.38;4986453;28;20031;-69
2023/01/26 08:55:15;;;;;;;0.60;0.60;;;;;;;9.04;64.00;102584.28;4987391;28;20547;-69
2023/01/26 08:57:41;;;;;;;0.90;0.90;;;;;;;9.12;64.52;102586.13;4987379;28;20034;-70
2023/01/26 09:00:08;;;;;;;0.70;0.70;;;;;;;9.07;65.46;102589.31;4984586;28;20450;-70
2023/01/26 09:02:33;;;;;;;0.80;0.80;;;;;;;8.86;66.78;102587.16;4990507;28;20052;-71
2023/01/26 09:04:59;;;;;;;0.70;0.70;;;;;;;9.00;66.48;102582.97;4991414;28;20511;-69
2023/01/26 09:07:25;;;;;;;0.60;0.60;;;;;;;9.14;66.92;102589.47;4987422;28;20053;-69
2023/01/26 09:09:50;;;;;;;0.60;0.60;;;;;;;9.19;66.10;102589.75;4991510;28;20026;-71
2023/01/26 09:12:16;;;;;;;0.50;0.50;;;;;;;9.23;66.82;102588.41;4991211;28;20181;-70
2023/01/26 09:14:41;;;;;;;0.63;0.63;;;;;;;9.59;65.94;102586.91;4990993;28;20034;-70
2023/01/26 09:17:06;;;;;;;0.60;0.60;;;;;;;9.80;64.99;102592.47;4990679;28;20121;-70
2023/01/26 09:19:32;;;;;;;0.75;0.70;;;;;;;9.77;66.29;102592.81;4991131;28;20042;-69
2023/01/26 09:21:57;;;;;;;0.68;0.68;;;;;;;9.11;68.04;102587.94;4991278;28;20030;-71
2023/01/26 09:24:23;;;;;;;0.60;0.60;;;;;;;8.68;70.95;102588.41;4991022;28;20575;-71
2023/01/26 09:26:48;;;;;;;0.70;0.70;;;;;;;9.47;69.59;102588.31;4990562;28;20037;-70
2023/01/26 09:29:15;;;;;;;0.60;0.60;;;;;;;10.25;66.06;102581.78;4990862;28;20502;-70
2023/01/26 09:31:41;;;;;;;0.68;0.68;;;;;;;9.52;69.44;102588.59;4990539;28;20058;-71
2023/01/26 09:34:06;;;;;;;0.60;0.60;;;;;;;10.41;66.92;102583.50;4990740;28;20446;-70
2023/01/26 09:36:32;;;;;;;0.90;0.90;;;;;;;10.17;68.80;102591.75;4990743;28;20109;-72
2023/01/26 09:38:58;;;;;;;0.40;0.40;;;;;;;10.88;65.08;102592.09;4991119;28;20038;-70
2023/01/26 09:41:42;;;;;;;0.65;0.65;;;;;;;10.54;66.64;102592.59;4990689;28;20046;-71
2023/01/26 09:44:11;;;;;;;0.70;0.70;;;;;;;10.30;68.75;102589.31;4990464;28;20089;-70
2023/01/26 09:47:04;;;;;;;0.70;0.70;;;;;;;11.58;63.63;102592.41;4990178;28;20063;-71
2023/01/26 09:49:53;;;;;;;0.52;0.52;;;;;;;11.18;65.88;102601.03;4967470;28;20065;-70
2023/01/26 09:52:33;;;;;;;0.80;0.80;;;;;;;10.42;68.51;102606.66;4968533;28;20042;-70
2023/01/26 09:55:05;;;;;;;0.70;0.70;;;;;;;10.36;68.36;102602.00;4964429;28;20070;-70
2023/01/26 09:58:03;;;;;;;0.80;0.80;;;;;;;10.89;68.16;102599.13;4968185;28;20653;-70
2023/01/26 10:00:31;;;;;;;0.80;0.80;;;;;;;11.11;66.59;102609.00;4910411;29;20698;-71
2023/01/26 10:03:15;;;;;;;0.70;0.70;;;;;;;11.13;65.87;102606.94;4910833;29;20210;-70
2023/01/26 10:06:06;;;;;;;0.70;0.70;;;;;;;11.55;65.51;102614.34;4910783;29;20044;-71
2023/01/26 10:08:32;;;;;;;0.60;0.60;;;;;;;11.76;65.51;102610.88;4910334;29;20056;-70
2023/01/26 10:11:24;;;;;;;0.75;0.75;;;;;;;11.74;66.41;102611.09;4910768;29;20032;-71
2023/01/26 10:13:56;;;;;;;0.68;0.68;;;;;;;11.57;66.19;102619.53;4899190;29;20040;-71
2023/01/26 10:16:23;;;;;;;0.70;0.70;;;;;;;11.60;66.23;102614.59;4891378;29;20114;-69
2023/01/26 10:18:57;;;;;;;0.70;0.70;;;;;;;11.38;66.94;102618.25;4902190;29;20304;-71
2023/01/26 10:21:27;;;;;;;0.70;0.70;;;;;;;10.65;69.53;102612.00;4887918;29;20589;-70
2023/01/26 10:23:53;;;;;;;0.65;0.65;;;;;;;11.70;67.32;102614.31;4890098;29;20509;-71
2023/01/26 10:26:21;;;;;;;0.80;0.80;;;;;;;11.16;68.54;102608.44;4888944;29;20044;-70
2023/01/26 10:28:49;;;;;;;0.60;0.60;;;;;;;11.66;68.79;102613.88;4898926;29;20135;-70
2023/01/26 10:31:21;;;;;;;0.88;0.88;;;;;;;12.13;66.67;102597.19;4893451;29;20092;-70
2023/01/26 10:34:05;;;;;;;0.50;0.50;;;;;;;12.85;63.72;102604.06;4903085;29;20405;-70
2023/01/26 10:36:31;;;;;;;0.70;0.70;;;;;;;12.38;65.64;102601.19;4902765;28;20048;-71
2023/01/26 10:39:22;;;;;;;0.60;0.60;;;;;;;11.28;69.21;102602.38;4948575;28;20555;-71
2023/01/26 10:42:01;;;;;;;;;;;;;;;12.76;64.99;102609.75;4945301;28;20039;-71
2023/01/26 10:44:35;;;;;;;0.65;0.65;;;;;;;12.37;64.78;102599.50;4945651;28;19926;-70
2023/01/26 10:47:04;;;;;;;0.57;0.57;;;;;;;13.23;62.78;102588.28;4955826;28;20341;-70
2023/01/26 10:49:30;;;;;;;0.65;0.65;;;;;;;12.44;65.16;102602.25;4955993;28;20043;-71
2023/01/26 10:52:17;;;;;;;0.75;0.75;;;;;;;12.04;67.86;102607.28;4987300;28;20030;-70
2023/01/26 10:54:44;;;;;;;0.77;0.57;;;;;;;11.60;68.13;102601.13;4989935;28;20129;-70
2023/01/26 10:57:25;;;;;;;0.60;0.60;;;;;;;11.97;67.84;102603.66;4989633;28;20054;-70
2023/01/26 10:59:58;;;;;;;;;;;;;;;12.21;66.17;102607.84;4990027;28;20133;-70
2023/01/26 11:02:27;;;;;;;0.50;0.50;;;;;;;11.47;69.40;102609.91;4989577;28;20088;-70
2023/01/26 11:05:08;;;;;;;0.60;0.60;;;;;;;12.50;67.07;102607.69;4990228;28;20034;-70
2023/01/26 11:07:34;;;;;;;0.60;0.60;;;;;;;12.88;65.46;102606.34;4990511;28;20046;-71
2023/01/26 11:10:20;;;;;;;0.60;0.60;;;;;;;12.84;66.19;102607.75;4990034;28;20038;-70
2023/01/26 11:12:46;;;;;;;0.65;0.65;;;;;;;12.81;65.36;102607.31;4988436;28;20085;-70
2023/01/26 11:15:23;;;;;;;0.70;0.70;;;;;;;12.69;65.05;102611.59;4989213;28;20129;-70
2023/01/26 11:17:59;;;;;;;0.80;0.80;;;;;;;13.01;64.41;102605.59;4986226;28;20042;-70
2023/01/26 11:21:06;;;;;;;0.52;0.52;;;;;;;13.90;61.61;102596.44;4988713;28;20402;-70
2023/01/26 11:23:40;;;;;;;0.47;0.47;;;;;;;12.44;66.30;102610.34;4969764;28;20047;-69
2023/01/26 11:26:31;;;;;;;0.70;0.70;;;;;;;12.69;66.21;102604.34;4977940;28;20042;-71
2023/01/26 11:29:27;;;;;;;0.60;0.60;;;;;;;12.16;66.77;102613.84;4912039;29;20040;-70
2023/01/26 11:32:01;;;;;;;0.60;0.60;;;;;;;12.58;66.55;102593.25;4914482;29;20556;-70
2023/01/26 11:34:26;;;;;;;0.65;0.65;;;;;;;13.06;65.16;102589.66;4930879;29;20040;-70
2023/01/26 11:37:07;;;;;;;0.65;0.65;;;;;;;14.66;60.29;102590.50;4932698;29;20086;-71
2023/01/26 11:39:33;;;;;;;;;;;;;;;13.24;64.80;102589.97;4932661;29;20780;-71
2023/01/26 11:42:19;;;;;;;0.50;0.50;;;;;;;13.50;63.93;102581.16;4918774;29;19919;-70
2023/01/26 11:45:07;;;;;;;0.40;0.40;;;;;;;12.40;66.76;102584.81;4913849;29;20115;-69
2023/01/26 11:47:47;;;;;;;0.50;0.50;;;;;;;13.35;64.38;102583.16;4918170;29;20236;-70
2023/01/26 11:50:25;;;;;;;0.60;0.60;;;;;;;13.58;63.55;102576.41;4918347;29;20044;-71
2023/01/26 11:53:22;;;;;;;0.50;0.50;;;;;;;12.88;65.56;102573.97;4932104;29;20735;-70
2023/01/26 11:55:56;;;;;;;0.40;0.40;;;;;;;13.22;63.03;102567.75;4928327;29;20047;-71
2023/01/26 11:58:27;;;;;;;0.40;0.40;;;;;;;12.59;66.18;102574.19;4922622;29;20055;-71
2023/01/26 12:00:57;;;;;;;0.60;0.60;;;;;;;13.65;61.53;102565.63;4942634;29;20047;-70
2023/01/26 12:03:46;;;;;;;0.55;0.55;;;;;;;13.38;62.73;102570.13;4948837;28;20840;-70
2023/01/26 12:06:27;;;;;;;0.50;0.50;;;;;;;13.13;63.55;102567.06;4971923;28;20054;-71
2023/01/26 12:08:58;;;;;;;;;;;;;;;13.84;60.61;102559.44;4992227;28;20045;-70
2023/01/26 12:11:41;;;;;;;0.68;0.68;;;;;;;14.02;60.25;102557.81;4990842;28;19928;-70
2023/01/26 12:14:17;;;;;;;0.50;0.50;;;;;;;13.11;61.26;102566.44;4992735;28;20031;-70
2023/01/26 12:17:07;;;;;;;0.40;0.40;;;;;;;13.09;62.44;102563.09;4989314;28;20526;-71
2023/01/26 12:19:41;;;;;;;0.40;0.40;;;;;;;13.80;59.26;102561.72;4988627;28;20034;-70
2023/01/26 12:22:18;;;;;;;0.45;0.45;;;;;;;12.80;61.78;102554.38;4992337;28;20121;-69
2023/01/26 12:24:54;;;;;;;0.50;0.50;;;;;;;13.29;59.54;102557.00;4992459;28;20328;-70